createdAt,value
2017-09-17T00:06:46.203Z,8.7
2017-09-17T00:16:59.763Z,8.5
2017-09-17T00:27:13.174Z,8.3
2017-09-17T00:37:26.235Z,8.4
2017-09-17T00:47:40.840Z,8
2017-09-17T00:57:55.370Z,8.2
2017-09-17T01:08:10.107Z,8.1
2017-09-17T01:18:24.832Z,7.7
2017-09-17T01:28:39.297Z,6.9
2017-09-17T01:38:53.875Z,7.7
2017-09-17T01:49:07.773Z,7.8
2017-09-17T01:59:22.159Z,7.5
2017-09-17T02:09:32.362Z,7.5
2017-09-17T02:19:45.698Z,7.6
2017-09-17T02:30:00.263Z,7.6
2017-09-17T02:40:14.991Z,7.5
2017-09-17T02:50:28.538Z,7.7
2017-09-17T03:00:41.853Z,7.6
2017-09-17T03:10:56.068Z,7.8
2017-09-17T03:21:09.211Z,7.6
2017-09-17T03:31:23.292Z,7.7
2017-09-17T03:41:36.756Z,7.6
2017-09-17T03:51:50.488Z,7.7
2017-09-17T04:02:03.905Z,7.6
2017-09-17T04:12:18.547Z,7.5
2017-09-17T04:22:28.739Z,7.4
2017-09-17T04:32:42.497Z,7.2
2017-09-17T04:42:56.294Z,7.1
2017-09-17T04:53:10.236Z,7.2
2017-09-17T05:03:24.159Z,6.8
2017-09-17T05:13:37.260Z,6.5
2017-09-17T05:23:50.651Z,5.9
2017-09-17T05:34:04.405Z,6.5
2017-09-17T05:44:19.111Z,6.6
2017-09-17T05:54:32.206Z,6.7
2017-09-17T06:04:46.068Z,6.1
2017-09-17T06:15:00.417Z,6.1
2017-09-17T06:25:15.376Z,7.3
2017-09-17T06:35:25.575Z,7.8
2017-09-17T06:45:39.956Z,8.3
2017-09-17T06:55:54.540Z,8.6
2017-09-17T07:06:09.285Z,9.1
2017-09-17T07:16:23.445Z,9.8
2017-09-17T07:26:37.388Z,11
2017-09-17T07:36:51.523Z,10.9
2017-09-17T07:47:05.312Z,10.7
2017-09-17T07:57:18.929Z,11.6
2017-09-17T08:07:32.352Z,12.6
2017-09-17T08:17:46.062Z,12.9
2017-09-17T08:27:59.279Z,14.1
2017-09-17T08:38:13.174Z,13.3
2017-09-17T08:48:23.501Z,13.9
2017-09-17T08:58:37.160Z,14.9
2017-09-17T09:08:52.038Z,14.6
2017-09-17T09:19:05.990Z,14.4
2017-09-17T09:29:20.300Z,15.3
2017-09-17T09:39:34.388Z,15.8
2017-09-17T09:49:48.116Z,15.6
2017-09-17T10:00:02.376Z,16.2
2017-09-17T10:10:15.972Z,15.5
2017-09-17T10:20:29.247Z,15.2
2017-09-17T10:30:44.443Z,14.9
2017-09-17T10:40:58.825Z,16.3
2017-09-17T10:51:13.891Z,16
2017-09-17T11:01:24.229Z,15.3
2017-09-17T11:11:37.504Z,15.3
2017-09-17T11:21:51.646Z,16.3
2017-09-17T11:32:06.524Z,15.7
2017-09-17T11:42:21.099Z,17.2
2017-09-17T11:52:36.042Z,17.6
2017-09-17T12:02:50.182Z,18
2017-09-17T12:13:03.699Z,16.3
2017-09-17T12:23:17.147Z,17.6
2017-09-17T12:33:31.216Z,16.4
2017-09-17T12:43:45.203Z,15.8
2017-09-17T12:54:00.200Z,18
2017-09-17T13:04:15.256Z,17.6
2017-09-17T13:14:25.636Z,15.8
2017-09-17T13:24:38.860Z,15.4
2017-09-17T13:34:52.668Z,15.1
2017-09-17T13:45:07.095Z,13.3
2017-09-17T13:55:21.259Z,13.2
2017-09-17T14:05:34.727Z,15
2017-09-17T14:15:48.306Z,15.7
2017-09-17T14:26:02.826Z,15.3
2017-09-17T14:36:16.447Z,16.5
2017-09-17T14:46:29.954Z,15
2017-09-17T14:56:44.434Z,14.1
2017-09-17T15:06:58.463Z,13.9
2017-09-17T15:17:12.185Z,13.6
2017-09-17T15:27:22.440Z,13.6
2017-09-17T15:37:37.289Z,13.7
2017-09-17T15:47:51.448Z,13.5
2017-09-17T15:58:06.321Z,13.3
2017-09-17T16:08:20.335Z,13.4
2017-09-17T16:18:34.010Z,13.3
2017-09-17T16:28:47.439Z,12.9
2017-09-17T16:39:01.751Z,12.5
2017-09-17T16:49:16.638Z,11.8
2017-09-17T16:59:30.150Z,11.4
2017-09-17T17:09:43.664Z,11
2017-09-17T17:19:57.534Z,10.7
2017-09-17T17:30:11.411Z,10.7
2017-09-17T17:40:21.631Z,10.8
2017-09-17T17:50:36.253Z,10.5
2017-09-17T18:00:49.500Z,10.7
2017-09-17T18:11:03.455Z,10.9
2017-09-17T18:21:18.155Z,10.9
2017-09-17T18:31:32.657Z,10.9
2017-09-17T18:41:47.659Z,10.7
2017-09-17T18:52:01.079Z,10.4
2017-09-17T19:02:15.485Z,10.3
2017-09-17T19:12:28.590Z,10.3
2017-09-17T19:22:42.386Z,10.1
2017-09-17T19:32:56.408Z,10.2
2017-09-17T19:43:10.761Z,10
2017-09-17T19:53:20.981Z,10.2
2017-09-17T20:03:35.388Z,10.1
2017-09-17T20:13:49.282Z,9.9
2017-09-17T20:24:03.380Z,9.7
2017-09-17T20:34:16.824Z,9.9
2017-09-17T20:44:31.484Z,9.4
2017-09-17T20:54:44.574Z,9.3
2017-09-17T21:04:59.143Z,8.6
2017-09-17T21:15:14.182Z,9.1
2017-09-17T21:25:27.285Z,9.5
2017-09-17T21:35:41.117Z,9.5
2017-09-17T21:45:56.013Z,9.5
2017-09-17T21:56:09.444Z,8.6
2017-09-17T22:06:19.632Z,8.9
2017-09-17T22:16:33.853Z,8.7
2017-09-17T22:26:48.195Z,8.9
2017-09-17T22:37:01.644Z,8.3
2017-09-17T22:47:15.011Z,7.8
2017-09-17T22:57:29.100Z,8.1
2017-09-17T23:07:42.186Z,7.9
2017-09-17T23:17:55.573Z,8
2017-09-17T23:28:09.659Z,7.8
2017-09-17T23:38:23.803Z,7.1
2017-09-17T23:48:38.842Z,7.3
2017-09-17T23:58:52.706Z,6.8
